Mijn Webcam  Mijn Webcam


webcam richting noord-oost  webcam facing north-east


Regen radar Meer informatie rain snow radar


Bezoek onze andere website:

Template documentation
and downloads

HWS Template - cumulus versie

And another site



METAR rapporten vliegvelden

   
EHGG - Groningen/Eelde, Netherlands
Afstand tot: Z 20 km
Gewijzigd: 25-05-2022 03:25
Helder  
Helder  
   Wind: Zuiden 7.4 km/h
Wind: Zuiden 7.4 km/h
Temperatuur: 7°C
Voelt als: 6°C
Dauwpunt: 7°C
Vochtigheid: 100%
Barometer: 1011 hPa
Bewolking: Helder
Zicht: meer dan 10 km
Bewolking: Helder
EHGG 250125Z AUTO 19004KT 9999 NCD 07/07 Q1011
EHMA - Awg-1 Sea, Netherlands
Afstand tot: WNW 45 km
Gewijzigd: 24-05-2022 08:55
Verouderd
Wat regen mogelijk, Gedeeltelijk bewolkt  
Wat regen mogelijk, Gedeeltelijk bewolkt  
   Wind: varieert 22.2 km/h
Wind: varieert 22.2 km/h
Temperatuur: 13°C
Dauwpunt: 11°C
Vochtigheid: 88%
Barometer: 999 hPa
Bewolking: Gedeeltelijk bewolkt
Zicht: 6 km
Bewolking: Licht bewolkt 213.4 m,
Gedeeltelijk bewolkt 579.1 m
EHMA 240655Z AUTO VRB12KT 6000 -RA FEW007 SCT019 13/11 Q0999 RERA REDZ
 

Script ontwikkeld door  Saratoga-weather.org Aangepast voor de template door  Weerstation Leuven

U vindt ons ook hier:

Het Weer Aktueel

UK Metoffice

European Weather Network

WeatherCloud

Weather Underground

Benelux Weer Netwerk

AWEKAS

WeatherlinkIP

HAMweather, WeatherForYou, PWS Weather

Apparatuur in gebruik:

Weerstation
Davis VP2

Weerprogramma
Cumulus

Davis VP2

Cumulus